Terminal Aerodrome Forecast
Issued by NWS

Home | Current Version | Previous Version | Text Only | Print | Product List | Glossary On
Versions: 1 2 3 4 5 6 7 8 9 10 11 12 13 14 15
000
FTUS43 KICT 020500
TAFCNU
TAF
KCNU 020522Z 0206/0306 18010KT P6SM VCTS SCT025 BKN040CB
      TEMPO 0207/0211 5SM TSRA OVC025CB
     FM021200 18009KT 5SM BR VCTS SCT015 OVC025CB
     FM021900 33012KT P6SM VCSH OVC030=

USA.gov is the U.S. government's official web portal to all federal, state and local government web resources and services.